createdAt,value
2023-02-11T00:00:53.684Z,103390.41
2023-02-11T00:03:20.204Z,103391.28
2023-02-11T00:05:46.625Z,103399.06
2023-02-11T00:08:16.976Z,103380.94
2023-02-11T00:10:46.338Z,103387.84
2023-02-11T00:13:12.822Z,103386.13
2023-02-11T00:15:39.369Z,103377.50
2023-02-11T00:18:05.778Z,103371.47
2023-02-11T00:20:32.175Z,103372.28
2023-02-11T00:22:58.622Z,103371.44
2023-02-11T00:25:25.035Z,103387.81
2023-02-11T00:27:51.441Z,103388.66
2023-02-11T00:30:17.868Z,103394.72
2023-02-11T00:32:44.328Z,103388.69
2023-02-11T00:35:10.696Z,103386.97
2023-02-11T00:37:37.148Z,103391.28
2023-02-11T00:40:06.720Z,103380.94
2023-02-11T00:42:35.535Z,103398.19
2023-02-11T00:45:02.292Z,103395.59
2023-02-11T00:47:28.680Z,103391.25
2023-02-11T00:49:55.187Z,103399.03
2023-02-11T00:52:21.601Z,103383.50
2023-02-11T00:54:47.976Z,103388.63
2023-02-11T00:57:14.733Z,103376.56
2023-02-11T00:59:41.068Z,103373.09
2023-02-11T01:02:07.438Z,103374.78
2023-02-11T01:04:33.898Z,103366.09
2023-02-11T01:07:00.414Z,103359.16
2023-02-11T01:09:26.806Z,103359.13
2023-02-11T01:11:53.206Z,103362.53
2023-02-11T01:14:19.620Z,103359.94
2023-02-11T01:16:46.052Z,103363.34
2023-02-11T01:19:12.550Z,103347.00
2023-02-11T01:21:39.099Z,103343.53
2023-02-11T01:24:05.999Z,103338.38
2023-02-11T01:26:32.478Z,103332.28
2023-02-11T01:29:00.889Z,103341.72
2023-02-11T01:31:27.371Z,103363.28
2023-02-11T01:33:53.802Z,103362.44
2023-02-11T01:36:20.190Z,103362.44
2023-02-11T01:38:46.690Z,103372.78
2023-02-11T01:41:14.939Z,103371.91
2023-02-11T01:43:47.767Z,103373.66
2023-02-11T01:46:26.386Z,103371.06
2023-02-11T01:49:02.489Z,103364.16
2023-02-11T01:51:40.057Z,103371.03
2023-02-11T01:54:27.370Z,103372.72
2023-02-11T01:57:16.259Z,103369.31
2023-02-11T01:59:59.642Z,103373.66
2023-02-11T02:02:48.264Z,103376.22
2023-02-11T02:05:34.922Z,103376.22
2023-02-11T02:08:17.612Z,103378.84
2023-02-11T02:10:46.866Z,103377.13
2023-02-11T02:13:14.626Z,103359.88
2023-02-11T02:16:15.306Z,103367.69
2023-02-11T02:19:00.373Z,103367.66
2023-02-11T02:21:45.470Z,103366.78
2023-02-11T02:24:17.853Z,103355.56
2023-02-11T02:26:53.301Z,103358.13
2023-02-11T02:30:15.809Z,103354.66
2023-02-11T02:32:51.207Z,103365.81
2023-02-11T02:36:08.840Z,103357.22
2023-02-11T02:38:46.743Z,103347.75
2023-02-11T02:41:17.106Z,103349.47
2023-02-11T02:43:47.710Z,103346.00
2023-02-11T02:46:17.430Z,103346.00
2023-02-11T02:48:45.054Z,103347.72
2023-02-11T02:51:39.314Z,103352.91
2023-02-11T02:54:30.804Z,103350.31
2023-02-11T02:57:06.313Z,103352.06
2023-02-11T02:59:58.934Z,103350.31
2023-02-11T03:02:59.428Z,103339.09
2023-02-11T03:05:31.831Z,103339.94
2023-02-11T03:08:14.628Z,103337.34
2023-02-11T03:10:50.685Z,103333.81
2023-02-11T03:13:20.014Z,103328.63
2023-02-11T03:15:51.031Z,103325.19
2023-02-11T03:18:21.509Z,103324.31
2023-02-11T03:20:53.226Z,103321.72
2023-02-11T03:23:30.892Z,103314.84
2023-02-11T03:26:16.203Z,103313.13
2023-02-11T03:28:54.852Z,103315.72
2023-02-11T03:31:43.615Z,103315.72
2023-02-11T03:34:14.599Z,103307.94
2023-02-11T03:36:57.058Z,103307.09
2023-02-11T03:39:30.590Z,103305.34
2023-02-11T03:42:00.345Z,103307.91
2023-02-11T03:44:31.225Z,103308.69
2023-02-11T03:46:59.049Z,103299.19
2023-02-11T03:49:27.753Z,103296.59
2023-02-11T03:51:55.789Z,103292.28
2023-02-11T03:54:30.906Z,103308.59
2023-02-11T03:57:00.505Z,103301.75
2023-02-11T03:59:27.299Z,103306.94
2023-02-11T04:01:54.489Z,103325.03
2023-02-11T04:04:20.967Z,103331.91
2023-02-11T04:06:47.415Z,103322.47
2023-02-11T04:09:13.808Z,103313.00
2023-02-11T04:11:40.154Z,103319.91
2023-02-11T04:14:06.523Z,103310.44
2023-02-11T04:16:33.035Z,103303.53
2023-02-11T04:18:59.529Z,103313.06
2023-02-11T04:21:25.928Z,103312.16
2023-02-11T04:23:52.364Z,103319.97
2023-02-11T04:26:18.713Z,103320.84
2023-02-11T04:28:45.051Z,103326.00
2023-02-11T04:31:12.054Z,103328.63
2023-02-11T04:33:38.474Z,103330.38
2023-02-11T04:36:05.034Z,103332.09
2023-02-11T04:38:31.879Z,103331.25
2023-02-11T04:41:00.429Z,103329.56
2023-02-11T04:43:26.856Z,103328.72
2023-02-11T04:45:57.546Z,103331.34
2023-02-11T04:48:24.553Z,103327.03
2023-02-11T04:50:50.960Z,103326.16
2023-02-11T04:53:17.437Z,103324.47
2023-02-11T04:55:43.872Z,103329.66
2023-02-11T04:58:10.232Z,103325.34
2023-02-11T05:00:36.711Z,103330.53
2023-02-11T05:03:03.099Z,103332.28
2023-02-11T05:05:29.543Z,103334.84
2023-02-11T05:07:55.901Z,103332.28
2023-02-11T05:10:22.312Z,103340.03
2023-02-11T05:12:49.634Z,103336.59
2023-02-11T05:15:16.188Z,103333.16
2023-02-11T05:17:42.590Z,103328.00
2023-02-11T05:20:09.727Z,103336.63
2023-02-11T05:22:36.064Z,103334.88
2023-02-11T05:25:02.522Z,103335.78
2023-02-11T05:27:28.849Z,103328.88
2023-02-11T05:29:55.296Z,103336.63
2023-02-11T05:32:21.711Z,103334.03
2023-02-11T05:34:48.129Z,103334.94
2023-02-11T05:37:14.903Z,103326.31
2023-02-11T05:39:41.318Z,103325.47
2023-02-11T05:42:07.706Z,103327.19
2023-02-11T05:44:34.166Z,103322.88
2023-02-11T05:47:00.618Z,103316.88
2023-02-11T05:49:26.958Z,103322.06
2023-02-11T05:51:53.317Z,103323.78
2023-02-11T05:54:19.758Z,103327.22
2023-02-11T05:56:46.120Z,103328.97
2023-02-11T05:59:14.888Z,103332.44
2023-02-11T06:01:41.463Z,103332.44
2023-02-11T06:04:07.882Z,103328.13
2023-02-11T06:06:34.260Z,103330.72
2023-02-11T06:09:00.610Z,103338.47
2023-02-11T06:11:27.003Z,103346.22
2023-02-11T06:13:53.371Z,103339.34
2023-02-11T06:16:19.792Z,103347.09
2023-02-11T06:18:46.280Z,103354.88
2023-02-11T06:21:12.937Z,103347.13
2023-02-11T06:23:39.391Z,103345.41
2023-02-11T06:26:08.787Z,103347.13
2023-02-11T06:28:36.000Z,103347.97
2023-02-11T06:31:06.940Z,103354.03
2023-02-11T06:33:34.991Z,103352.31
2023-02-11T06:36:02.013Z,103343.72
2023-02-11T06:38:28.399Z,103339.38
2023-02-11T06:40:54.866Z,103340.28
2023-02-11T06:43:21.238Z,103333.38
2023-02-11T06:45:54.155Z,103334.25
2023-02-11T06:48:20.553Z,103334.22
2023-02-11T06:50:46.988Z,103334.22
2023-02-11T06:53:13.657Z,103337.69
2023-02-11T06:55:40.370Z,103339.41
2023-02-11T06:58:06.731Z,103348.91
2023-02-11T07:00:33.141Z,103339.41
2023-02-11T07:02:59.686Z,103345.47
2023-02-11T07:05:26.159Z,103352.34
2023-02-11T07:07:52.559Z,103351.50
2023-02-11T07:10:19.128Z,103363.56
2023-02-11T07:12:45.587Z,103362.69
2023-02-11T07:15:12.065Z,103359.25
2023-02-11T07:17:38.516Z,103354.09
2023-02-11T07:20:05.369Z,103356.69
2023-02-11T07:22:31.830Z,103361.88
2023-02-11T07:24:58.198Z,103359.31
2023-02-11T07:27:24.661Z,103370.53
2023-02-11T07:29:51.013Z,103374.84
2023-02-11T07:32:17.534Z,103381.75
2023-02-11T07:34:44.009Z,103374.00
2023-02-11T07:37:10.926Z,103380.91
2023-02-11T07:39:37.276Z,103386.09
2023-02-11T07:42:04.224Z,103388.69
2023-02-11T07:44:30.848Z,103382.66
2023-02-11T07:46:57.240Z,103387.00
2023-02-11T07:49:23.617Z,103393.91
2023-02-11T07:51:51.347Z,103393.03
2023-02-11T07:54:18.164Z,103386.16
2023-02-11T07:56:44.733Z,103386.19
2023-02-11T07:59:11.570Z,103377.56
2023-02-11T08:01:37.957Z,103381.03
2023-02-11T08:04:04.666Z,103381.88
2023-02-11T08:06:34.294Z,103388.84
2023-02-11T08:09:06.791Z,103382.81
2023-02-11T08:11:33.219Z,103386.28
2023-02-11T08:13:59.631Z,103390.59
2023-02-11T08:16:34.454Z,103395.78
2023-02-11T08:19:04.092Z,103392.31
2023-02-11T08:21:30.607Z,103394.91
2023-02-11T08:23:57.503Z,103382.88
2023-02-11T08:26:29.841Z,103384.59
2023-02-11T08:28:56.944Z,103385.44
2023-02-11T08:31:43.971Z,103387.19
2023-02-11T08:34:11.897Z,103397.53
2023-02-11T08:36:39.610Z,103404.47
2023-02-11T08:39:19.161Z,103407.06
2023-02-11T08:41:51.566Z,103414.84
2023-02-11T08:44:19.663Z,103415.72
2023-02-11T08:46:46.467Z,103410.56
2023-02-11T08:49:12.897Z,103412.31
2023-02-11T08:51:39.756Z,103412.31
2023-02-11T08:54:09.487Z,103408.88
2023-02-11T08:56:36.780Z,103420.09
2023-02-11T08:59:03.789Z,103416.66
2023-02-11T09:01:31.515Z,103426.16
2023-02-11T09:03:58.906Z,103424.47
2023-02-11T09:06:26.476Z,103426.19
2023-02-11T09:08:54.778Z,103433.13
2023-02-11T09:11:26.977Z,103431.44
2023-02-11T09:13:54.495Z,103424.53
2023-02-11T09:16:27.366Z,103424.59
2023-02-11T09:18:57.056Z,103436.69
2023-02-11T09:21:23.511Z,103437.56
2023-02-11T09:23:49.977Z,103441.00
2023-02-11T09:26:19.993Z,103441.91
2023-02-11T09:28:47.693Z,103442.78
2023-02-11T09:31:20.662Z,103450.56
2023-02-11T09:33:49.469Z,103443.66
2023-02-11T09:36:22.299Z,103444.56
2023-02-11T09:38:48.886Z,103444.56
2023-02-11T09:41:24.301Z,103450.63
2023-02-11T09:44:00.916Z,103454.94
2023-02-11T09:46:33.045Z,103457.56
2023-02-11T09:49:00.561Z,103459.28
2023-02-11T09:51:40.930Z,103457.59
2023-02-11T09:54:21.004Z,103458.44
2023-02-11T09:56:47.362Z,103461.03
2023-02-11T09:59:17.628Z,103468.84
2023-02-11T10:01:48.518Z,103477.50
2023-02-11T10:04:34.546Z,103487.00
2023-02-11T10:07:21.227Z,103487.91
2023-02-11T10:10:21.288Z,103482.75
2023-02-11T10:13:01.145Z,103487.94
2023-02-11T10:15:38.355Z,103489.69
2023-02-11T10:18:16.463Z,103494.88
2023-02-11T10:20:59.047Z,103497.53
2023-02-11T10:23:31.705Z,103494.94
2023-02-11T10:25:59.095Z,103504.44
2023-02-11T10:28:35.670Z,103508.78
2023-02-11T10:31:05.294Z,103513.09
2023-02-11T10:34:03.500Z,103514.81
2023-02-11T10:36:33.860Z,103519.16
2023-02-11T10:39:02.253Z,103516.56
2023-02-11T10:41:36.878Z,103520.91
2023-02-11T10:44:07.098Z,103520.00
2023-02-11T10:46:37.827Z,103517.44
2023-02-11T10:49:04.316Z,103530.41
2023-02-11T10:51:35.245Z,103523.50
2023-02-11T10:54:04.620Z,103525.22
2023-02-11T10:56:34.447Z,103524.38
2023-02-11T10:59:40.348Z,103518.31
2023-02-11T11:02:25.179Z,103520.91
2023-02-11T11:04:57.036Z,103527.84
2023-02-11T11:07:29.497Z,103523.50
2023-02-11T11:10:00.277Z,103530.41
2023-02-11T11:12:36.203Z,103535.59
2023-02-11T11:15:16.549Z,103539.06
2023-02-11T11:17:43.073Z,103539.09
2023-02-11T11:20:32.278Z,103539.06
2023-02-11T11:23:17.460Z,103542.53
2023-02-11T11:26:03.632Z,103545.13
2023-02-11T11:28:36.615Z,103552.06
2023-02-11T11:31:03.614Z,103560.72
2023-02-11T11:33:34.294Z,103558.09
2023-02-11T11:36:06.513Z,103565.88
2023-02-11T11:38:35.262Z,103564.19
2023-02-11T11:41:23.136Z,103567.63
2023-02-11T11:44:08.392Z,103565.03
2023-02-11T11:46:39.097Z,103561.53
2023-02-11T11:49:26.667Z,103551.13
2023-02-11T11:52:18.047Z,103551.09
2023-02-11T11:54:50.233Z,103539.00
2023-02-11T11:57:21.986Z,103540.72
2023-02-11T11:59:48.414Z,103532.94
2023-02-11T12:02:52.437Z,103545.03
2023-02-11T12:05:53.430Z,103535.47
2023-02-11T12:08:23.183Z,103531.09
2023-02-11T12:11:15.315Z,103524.16
2023-02-11T12:13:53.575Z,103530.16
2023-02-11T12:16:19.975Z,103524.03
2023-02-11T12:19:13.969Z,103521.34
2023-02-11T12:22:18.320Z,103522.94
2023-02-11T12:24:47.738Z,103522.88
2023-02-11T12:27:22.095Z,103523.72
2023-02-11T12:30:14.371Z,103517.56
2023-02-11T12:33:11.650Z,103525.31
2023-02-11T12:36:02.309Z,103518.97
2023-02-11T12:38:49.297Z,103522.16
2023-02-11T12:42:08.569Z,103521.06
2023-02-11T12:44:50.875Z,103525.41
2023-02-11T12:47:23.260Z,103522.69
2023-02-11T12:50:28.739Z,103524.31
2023-02-11T12:53:11.816Z,103522.50
2023-02-11T12:55:44.838Z,103514.72
2023-02-11T12:58:18.987Z,103519.25
2023-02-11T13:00:55.409Z,103512.44
2023-02-11T13:03:27.224Z,103511.69
2023-02-11T13:06:05.396Z,103519.66
2023-02-11T13:08:48.424Z,103526.63
2023-02-11T13:11:26.074Z,103524.88
2023-02-11T13:14:04.472Z,103521.38
2023-02-11T13:16:48.784Z,103526.53
2023-02-11T13:19:34.766Z,103521.25
2023-02-11T13:22:25.865Z,103525.56
2023-02-11T13:25:07.272Z,103523.00
2023-02-11T13:28:20.810Z,103513.50
2023-02-11T13:30:52.402Z,103509.13
2023-02-11T13:33:31.719Z,103509.06
2023-02-11T13:35:58.027Z,103509.91
2023-02-11T13:38:27.507Z,103507.25
2023-02-11T13:41:14.412Z,103504.63
2023-02-11T13:43:41.128Z,103512.53
2023-02-11T13:46:15.543Z,103503.78
2023-02-11T13:48:54.092Z,103503.91
2023-02-11T13:51:35.135Z,103508.44
2023-02-11T13:54:02.437Z,103506.91
2023-02-11T13:56:37.988Z,103508.75
2023-02-11T13:59:06.988Z,103509.75
2023-02-11T14:02:17.779Z,103510.66
2023-02-11T14:05:24.811Z,103520.22
2023-02-11T14:08:28.078Z,103520.25
2023-02-11T14:11:01.684Z,103525.47
2023-02-11T14:13:30.734Z,103523.69
2023-02-11T14:16:25.432Z,103527.91
2023-02-11T14:19:02.468Z,103522.59
2023-02-11T14:21:32.389Z,103513.88
2023-02-11T14:24:01.775Z,103520.00
2023-02-11T14:26:51.926Z,103523.44
2023-02-11T14:29:28.725Z,103525.09
2023-02-11T14:32:18.714Z,103528.50
2023-02-11T14:34:57.212Z,103522.50
2023-02-11T14:38:08.100Z,103514.69
2023-02-11T14:40:56.772Z,103525.19
2023-02-11T14:43:33.055Z,103529.56
2023-02-11T14:46:01.280Z,103528.66
2023-02-11T14:48:31.650Z,103526.09
2023-02-11T14:51:03.038Z,103522.59
2023-02-11T14:53:33.174Z,103539.13
2023-02-11T14:55:59.685Z,103528.72
2023-02-11T14:58:31.685Z,103523.50
2023-02-11T15:01:01.311Z,103528.72
2023-02-11T15:03:29.048Z,103528.72
2023-02-11T15:05:58.700Z,103531.31
2023-02-11T15:08:26.480Z,103532.22
2023-02-11T15:10:55.284Z,103532.22
2023-02-11T15:13:27.114Z,103534.84
2023-02-11T15:15:57.902Z,103535.75
2023-02-11T15:18:31.754Z,103534.06
2023-02-11T15:20:58.200Z,103536.69
2023-02-11T15:23:29.661Z,103541.91
2023-02-11T15:25:56.559Z,103546.25
2023-02-11T15:28:29.104Z,103549.72
2023-02-11T15:31:17.414Z,103553.25
2023-02-11T15:33:43.890Z,103555.09
2023-02-11T15:36:12.608Z,103551.63
2023-02-11T15:38:40.029Z,103549.06
2023-02-11T15:41:07.577Z,103556.03
2023-02-11T15:43:48.721Z,103560.38
2023-02-11T15:46:18.787Z,103556.03
2023-02-11T15:48:49.219Z,103560.41
2023-02-11T15:51:25.247Z,103555.25
2023-02-11T15:53:58.602Z,103560.47
2023-02-11T15:56:45.581Z,103563.06
2023-02-11T15:59:17.215Z,103561.38
2023-02-11T16:01:45.538Z,103563.13
2023-02-11T16:04:24.414Z,103560.50
2023-02-11T16:06:51.395Z,103569.19
2023-02-11T16:09:31.800Z,103562.28
2023-02-11T16:12:03.137Z,103563.19
2023-02-11T16:14:29.587Z,103565.78
2023-02-11T16:17:04.122Z,103579.66
2023-02-11T16:19:32.582Z,103576.22
2023-02-11T16:22:02.489Z,103577.09
2023-02-11T16:24:33.004Z,103582.31
2023-02-11T16:27:06.859Z,103585.78
2023-02-11T16:29:36.516Z,103576.25
2023-02-11T16:32:08.440Z,103588.38
2023-02-11T16:34:35.089Z,103592.75
2023-02-11T16:37:04.747Z,103592.72
2023-02-11T16:39:31.210Z,103589.28
2023-02-11T16:41:58.274Z,103588.41
2023-02-11T16:44:24.846Z,103591.00
2023-02-11T16:46:52.762Z,103597.97
2023-02-11T16:49:32.611Z,103601.41
2023-02-11T16:52:01.814Z,103600.53
2023-02-11T16:54:29.602Z,103605.75
2023-02-11T16:56:56.874Z,103602.28
2023-02-11T16:59:23.703Z,103609.22
2023-02-11T17:01:51.941Z,103607.50
2023-02-11T17:04:25.966Z,103622.19
2023-02-11T17:06:52.480Z,103624.81
2023-02-11T17:09:24.437Z,103630.00
2023-02-11T17:11:51.592Z,103627.41
2023-02-11T17:14:19.242Z,103629.16
2023-02-11T17:16:47.770Z,103636.94
2023-02-11T17:19:17.221Z,103632.59
2023-02-11T17:21:45.149Z,103630.88
2023-02-11T17:24:14.294Z,103634.31
2023-02-11T17:26:41.484Z,103640.38
2023-02-11T17:29:09.869Z,103641.28
2023-02-11T17:31:36.632Z,103638.66
2023-02-11T17:34:03.518Z,103647.31
2023-02-11T17:36:33.297Z,103642.97
2023-02-11T17:39:01.158Z,103641.25
2023-02-11T17:41:27.876Z,103644.69
2023-02-11T17:43:57.587Z,103648.16
2023-02-11T17:46:24.406Z,103651.63
2023-02-11T17:48:52.759Z,103647.31
2023-02-11T17:51:28.433Z,103654.22
2023-02-11T17:53:57.764Z,103655.94
2023-02-11T17:56:24.836Z,103650.75
2023-02-11T17:58:52.953Z,103652.47
2023-02-11T18:01:20.021Z,103656.78
2023-02-11T18:03:46.444Z,103655.06
2023-02-11T18:06:12.843Z,103651.59
2023-02-11T18:08:39.229Z,103651.59
2023-02-11T18:11:09.969Z,103659.38
2023-02-11T18:13:36.373Z,103664.56
2023-02-11T18:16:04.245Z,103669.75
2023-02-11T18:18:31.540Z,103669.75
2023-02-11T18:20:59.529Z,103671.47
2023-02-11T18:23:26.490Z,103680.13
2023-02-11T18:25:53.506Z,103677.50
2023-02-11T18:28:20.266Z,103678.38
2023-02-11T18:30:46.729Z,103676.66
2023-02-11T18:33:14.429Z,103680.97
2023-02-11T18:35:42.119Z,103682.69
2023-02-11T18:38:09.768Z,103692.22
2023-02-11T18:40:39.799Z,103685.28
2023-02-11T18:43:06.806Z,103695.66
2023-02-11T18:45:33.517Z,103691.34
2023-02-11T18:48:03.483Z,103698.28
2023-02-11T18:50:30.120Z,103694.81
2023-02-11T18:52:56.621Z,103701.69
2023-02-11T18:55:25.717Z,103698.25
2023-02-11T18:57:52.994Z,103701.72
2023-02-11T19:00:21.352Z,103699.09
2023-02-11T19:02:47.711Z,103692.19
2023-02-11T19:05:14.275Z,103691.31
2023-02-11T19:07:41.703Z,103700.84
2023-02-11T19:10:08.805Z,103706.00
2023-02-11T19:12:35.204Z,103704.25
2023-02-11T19:15:01.661Z,103699.94
2023-02-11T19:17:28.069Z,103704.25
2023-02-11T19:19:54.422Z,103698.22
2023-02-11T19:22:20.911Z,103700.81
2023-02-11T19:24:47.381Z,103701.66
2023-02-11T19:27:13.784Z,103713.75
2023-02-11T19:29:40.242Z,103722.41
2023-02-11T19:32:06.948Z,103726.72
2023-02-11T19:34:40.914Z,103725.84
2023-02-11T19:37:12.669Z,103732.78
2023-02-11T19:39:40.514Z,103732.78
2023-02-11T19:42:07.237Z,103731.91
2023-02-11T19:44:33.706Z,103734.50
2023-02-11T19:47:00.230Z,103736.25
2023-02-11T19:49:26.810Z,103734.50
2023-02-11T19:51:57.269Z,103724.09
2023-02-11T19:54:26.441Z,103731.00
2023-02-11T19:56:53.594Z,103730.97
2023-02-11T19:59:20.404Z,103736.16
2023-02-11T20:01:48.875Z,103736.16
2023-02-11T20:04:16.841Z,103745.69
2023-02-11T20:06:43.486Z,103747.41
2023-02-11T20:09:13.459Z,103748.28
2023-02-11T20:11:40.914Z,103752.59
2023-02-11T20:14:08.342Z,103764.69
2023-02-11T20:16:47.705Z,103753.44
2023-02-11T20:19:21.236Z,103763.00
2023-02-11T20:21:50.760Z,103761.22
2023-02-11T20:24:18.565Z,103756.03
2023-02-11T20:26:47.986Z,103759.50
2023-02-11T20:29:18.338Z,103761.22
2023-02-11T20:31:45.543Z,103762.06
2023-02-11T20:34:12.600Z,103772.47
2023-02-11T20:36:40.388Z,103766.41
2023-02-11T20:39:07.536Z,103769.84
2023-02-11T20:41:36.512Z,103778.53
2023-02-11T20:44:05.691Z,103781.97
2023-02-11T20:46:33.876Z,103782.81
2023-02-11T20:49:01.300Z,103783.69
2023-02-11T20:51:31.032Z,103781.06
2023-02-11T20:53:58.470Z,103787.13
2023-02-11T20:56:30.038Z,103780.19
2023-02-11T20:58:58.024Z,103786.25
2023-02-11T21:01:35.710Z,103792.31
2023-02-11T21:04:03.866Z,103789.69
2023-02-11T21:06:36.613Z,103794.03
2023-02-11T21:09:05.259Z,103795.75
2023-02-11T21:11:31.741Z,103798.31
2023-02-11T21:13:58.579Z,103797.44
2023-02-11T21:16:25.717Z,103803.50
2023-02-11T21:18:52.616Z,103801.78
2023-02-11T21:21:19.853Z,103805.25
2023-02-11T21:23:46.386Z,103806.94
2023-02-11T21:26:13.338Z,103810.41
2023-02-11T21:28:43.308Z,103813.00
2023-02-11T21:31:10.074Z,103809.53
2023-02-11T21:33:36.675Z,103825.13
2023-02-11T21:36:04.665Z,103821.66
2023-02-11T21:38:33.545Z,103825.13
2023-02-11T21:41:06.785Z,103828.59
2023-02-11T21:43:33.588Z,103826.84
2023-02-11T21:46:00.659Z,103829.41
2023-02-11T21:48:27.192Z,103829.41
2023-02-11T21:50:53.770Z,103830.28
2023-02-11T21:53:20.389Z,103830.28
2023-02-11T21:55:46.863Z,103827.69
2023-02-11T21:58:14.046Z,103829.41
2023-02-11T22:00:40.569Z,103838.88
2023-02-11T22:03:07.000Z,103840.59
2023-02-11T22:05:33.409Z,103840.59
2023-02-11T22:07:59.846Z,103844.06
2023-02-11T22:10:26.316Z,103850.13
2023-02-11T22:12:52.743Z,103846.66
2023-02-11T22:15:19.674Z,103851.81
2023-02-11T22:17:46.111Z,103850.09
2023-02-11T22:20:12.820Z,103858.72
2023-02-11T22:22:39.244Z,103854.41
2023-02-11T22:25:06.143Z,103853.56
2023-02-11T22:27:32.593Z,103857.84
2023-02-11T22:29:59.042Z,103855.25
2023-02-11T22:32:25.474Z,103856.13
2023-02-11T22:34:53.407Z,103849.19
2023-02-11T22:37:20.239Z,103849.19
2023-02-11T22:39:46.743Z,103855.25
2023-02-11T22:42:13.099Z,103848.31
2023-02-11T22:44:39.512Z,103856.97
2023-02-11T22:47:06.021Z,103856.13
2023-02-11T22:49:33.193Z,103850.03
2023-02-11T22:52:00.304Z,103850.03
2023-02-11T22:54:27.234Z,103850.88
2023-02-11T22:56:53.729Z,103857.81
2023-02-11T22:59:21.082Z,103856.94
2023-02-11T23:01:47.870Z,103853.47
2023-02-11T23:04:17.042Z,103859.53
2023-02-11T23:06:43.810Z,103849.13
2023-02-11T23:09:12.503Z,103856.94
2023-02-11T23:11:39.708Z,103862.13
2023-02-11T23:14:08.523Z,103864.69
2023-02-11T23:16:35.424Z,103865.56
2023-02-11T23:19:08.770Z,103862.16
2023-02-11T23:21:37.768Z,103863.84
2023-02-11T23:24:08.376Z,103860.41
2023-02-11T23:26:35.361Z,103862.13
2023-02-11T23:29:01.959Z,103864.72
2023-02-11T23:31:33.120Z,103865.56
2023-02-11T23:34:01.076Z,103869.00
2023-02-11T23:36:28.163Z,103861.22
2023-02-11T23:38:54.708Z,103869.84
2023-02-11T23:41:21.920Z,103871.59
2023-02-11T23:43:50.746Z,103868.97
2023-02-11T23:46:17.604Z,103868.97
2023-02-11T23:48:44.362Z,103863.78
2023-02-11T23:51:11.109Z,103866.38
2023-02-11T23:53:38.805Z,103868.97
2023-02-11T23:56:10.662Z,103855.13
2023-02-11T23:58:37.381Z,103863.75
